createdAt,value
2018-06-05T00:01:11.922Z,63.94
2018-06-05T00:03:40.725Z,64.16
2018-06-05T00:06:11.974Z,64.56
2018-06-05T00:08:41.501Z,64.78
2018-06-05T00:11:12.709Z,64.51
2018-06-05T00:13:41.860Z,64.79
2018-06-05T00:19:07.292Z,65.13
2018-06-05T00:21:38.863Z,65.32
2018-06-05T00:24:11.050Z,65.71
2018-06-05T00:26:44.830Z,66.17
2018-06-05T00:29:19.285Z,65.73
2018-06-05T00:31:48.084Z,65.83
2018-06-05T00:34:17.581Z,65.80
2018-06-05T00:37:00.514Z,65.80
2018-06-05T00:39:30.012Z,65.79
2018-06-05T00:41:59.294Z,65.25
2018-06-05T00:44:28.158Z,65.34
2018-06-05T00:46:57.300Z,65.36
2018-06-05T00:49:31.715Z,65.36
2018-06-05T00:52:10.826Z,65.87
2018-06-05T00:54:43.231Z,65.94
2018-06-05T00:57:16.040Z,65.90
2018-06-05T00:59:46.869Z,66.23
2018-06-05T01:02:17.534Z,67.70
2018-06-05T01:04:59.995Z,68.30
2018-06-05T01:07:53.605Z,67.84
2018-06-05T01:10:29.157Z,68.24
2018-06-05T01:13:01.512Z,67.67
2018-06-05T01:18:17.145Z,67.87
2018-06-05T01:20:48.433Z,68.42
2018-06-05T01:23:17.927Z,69.06
2018-06-05T01:34:43.375Z,68.94
2018-06-05T01:37:17.693Z,68.95
2018-06-05T01:39:50.327Z,69.08
2018-06-05T01:42:28.207Z,69.09
2018-06-05T01:53:39.688Z,68.80
2018-06-05T01:56:18.816Z,69.02
2018-06-05T02:01:41.244Z,69.69
2018-06-05T02:04:11.101Z,70.53
2018-06-05T02:06:54.700Z,70.19
2018-06-05T02:09:28.409Z,69.41
2018-06-05T02:12:02.428Z,70.39
2018-06-05T02:14:35.957Z,70.45
2018-06-05T02:17:12.242Z,70.18
2018-06-05T02:19:44.564Z,69.79
2018-06-05T02:58:20.422Z,69.17
2018-06-05T03:00:48.886Z,69.27
2018-06-05T03:03:18.423Z,70.03
2018-06-05T03:08:45.406Z,70.51
2018-06-05T03:11:14.902Z,70.19
2018-06-05T03:13:43.320Z,70.09
2018-06-05T03:16:11.854Z,70.97
2018-06-05T03:18:40.213Z,71.80
2018-06-05T03:21:08.508Z,71.68
2018-06-05T03:23:36.825Z,72.03
2018-06-05T03:26:05.196Z,72.59
2018-06-05T03:28:33.529Z,72.48
2018-06-05T03:31:01.923Z,71.39
2018-06-05T03:33:30.222Z,71.99
2018-06-05T03:35:58.702Z,71.51
2018-06-05T03:38:27.107Z,71.69
2018-06-05T03:40:55.466Z,71.50
2018-06-05T03:43:23.784Z,71.26
2018-06-05T03:45:52.184Z,71.64
2018-06-05T03:48:20.540Z,71.35
2018-06-05T03:50:48.929Z,71.68
2018-06-05T03:53:17.257Z,71.34
2018-06-05T03:55:45.560Z,70.37
2018-06-05T03:58:13.970Z,70.63
2018-06-05T04:00:42.338Z,70.57
2018-06-05T04:03:10.653Z,70.98
2018-06-05T04:05:39.046Z,70.81
2018-06-05T04:08:07.403Z,70.98
2018-06-05T04:10:35.794Z,71.86
2018-06-05T04:13:04.194Z,72.29
2018-06-05T04:15:33.002Z,71.71
2018-06-05T04:18:01.404Z,71.44
2018-06-05T04:20:29.784Z,71.47
2018-06-05T04:22:59.026Z,72.07
2018-06-05T04:25:41.142Z,72.30
2018-06-05T04:28:09.517Z,71.90
2018-06-05T04:30:37.903Z,71.04
2018-06-05T04:33:06.252Z,70.55
2018-06-05T04:35:34.700Z,70.17
2018-06-05T04:38:03.198Z,70.86
2018-06-05T04:40:31.581Z,70.95
2018-06-05T04:43:00.014Z,70.32
2018-06-05T04:45:42.102Z,70.78
2018-06-05T04:48:10.490Z,70.43
2018-06-05T04:50:38.894Z,70.75
2018-06-05T04:53:07.340Z,71.28
2018-06-05T04:55:35.729Z,71.40
2018-06-05T04:58:04.231Z,71.63
2018-06-05T05:00:32.735Z,71.80
2018-06-05T05:03:01.166Z,71.40
2018-06-05T05:05:29.625Z,70.90
2018-06-05T05:07:57.999Z,71.05
2018-06-05T05:10:26.394Z,71.01
2018-06-05T05:12:55.035Z,71.25
2018-06-05T05:21:08.861Z,70.70
2018-06-05T05:23:37.279Z,70.62
2018-06-05T05:26:05.925Z,70.09
2018-06-05T05:28:34.409Z,69.84
2018-06-05T05:31:02.806Z,69.47
2018-06-05T05:33:31.281Z,69.49
2018-06-05T05:35:59.934Z,68.93
2018-06-05T05:38:28.303Z,69.35
2018-06-05T05:40:56.749Z,69.22
2018-06-05T05:43:25.101Z,69.20
2018-06-05T05:45:53.469Z,68.30
2018-06-05T05:48:21.841Z,68.45
2018-06-05T05:50:50.197Z,67.97
2018-06-05T05:53:18.601Z,68.25
2018-06-05T05:56:09.689Z,68.26
2018-06-05T05:58:38.543Z,68.88
2018-06-05T06:01:06.903Z,68.74
2018-06-05T06:03:38.928Z,68.32
2018-06-05T06:09:00.444Z,68.80
2018-06-05T06:11:32.412Z,69.07
2018-06-05T06:14:02.578Z,68.87
2018-06-05T06:16:31.976Z,68.60
2018-06-05T06:19:00.970Z,68.70
2018-06-05T06:21:29.433Z,67.84
2018-06-05T06:24:04.385Z,67.63
2018-06-05T06:29:26.102Z,67.71
2018-06-05T06:31:57.145Z,68.17
2018-06-05T06:34:25.466Z,68.24
2018-06-05T06:36:53.949Z,68.04
2018-06-05T06:39:22.554Z,68.74
2018-06-05T06:41:50.900Z,69.25
2018-06-05T06:44:19.426Z,68.93
2018-06-05T06:46:47.898Z,69.37
2018-06-05T06:49:16.484Z,69.21
2018-06-05T06:51:45.066Z,69.63
2018-06-05T06:54:13.444Z,69.40
2018-06-05T06:56:42.068Z,68.42
2018-06-05T06:59:10.506Z,68.51
2018-06-05T07:01:38.919Z,68.09
2018-06-05T07:04:07.310Z,68.59
2018-06-05T07:06:35.748Z,68.31
2018-06-05T07:09:06.066Z,68.79
2018-06-05T07:11:34.550Z,68.38
2018-06-05T07:14:03.029Z,68.69
2018-06-05T07:19:38.500Z,68.99
2018-06-05T07:22:07.181Z,68.40
2018-06-05T07:24:35.967Z,69.03
2018-06-05T07:27:09.671Z,68.51
2018-06-05T07:29:38.183Z,68.39
2018-06-05T07:32:06.744Z,68.59
2018-06-05T07:34:35.205Z,68.68
2018-06-05T07:37:17.318Z,69.09
2018-06-05T07:39:45.834Z,69.41
2018-06-05T07:42:14.364Z,68.93
2018-06-05T07:44:42.992Z,69.05
2018-06-05T07:47:11.618Z,68.96
2018-06-05T07:49:40.013Z,69.57
2018-06-05T07:52:08.413Z,69.55
2018-06-05T07:54:37.014Z,69.21
2018-06-05T08:00:20.514Z,69.06
2018-06-05T08:02:49.887Z,68.61
2018-06-05T08:05:19.227Z,69.02
2018-06-05T08:07:49.025Z,69.04
2018-06-05T08:10:18.909Z,68.58
2018-06-05T08:12:47.472Z,68.28
2018-06-05T08:15:15.957Z,69.60
2018-06-05T08:17:44.298Z,68.98
2018-06-05T08:20:13.090Z,68.96
2018-06-05T08:22:52.709Z,68.79
2018-06-05T08:25:21.943Z,68.54
2018-06-05T08:27:50.759Z,68.76
2018-06-05T08:30:19.183Z,68.05
2018-06-05T08:32:47.843Z,68.56
2018-06-05T08:35:16.285Z,68.00
2018-06-05T08:37:44.732Z,68.25
2018-06-05T08:40:13.205Z,68.10
2018-06-05T08:42:41.779Z,67.94
2018-06-05T08:45:11.247Z,67.51
2018-06-05T08:47:40.153Z,67.59
2018-06-05T08:50:08.760Z,67.42
2018-06-05T08:52:37.352Z,67.21
2018-06-05T08:57:59.202Z,67.72
2018-06-05T09:00:27.590Z,67.72
2018-06-05T09:02:56.209Z,67.68
2018-06-05T09:05:43.458Z,67.32
2018-06-05T09:08:12.361Z,67.33
2018-06-05T09:10:40.900Z,67.26
2018-06-05T09:13:09.572Z,67.14
2018-06-05T09:18:31.409Z,66.69
2018-06-05T09:20:59.833Z,66.94
2018-06-05T09:23:28.726Z,66.38
2018-06-05T09:25:57.359Z,66.62
2018-06-05T09:28:26.697Z,66.77
2018-06-05T09:30:55.111Z,67.29
2018-06-05T09:33:24.141Z,66.57
2018-06-05T09:35:52.872Z,66.81
2018-06-05T09:38:21.679Z,67.23
2018-06-05T09:40:50.099Z,67.18
2018-06-05T09:43:18.539Z,67.12
2018-06-05T09:45:47.006Z,68.01
2018-06-05T09:48:15.724Z,67.60
2018-06-05T09:50:46.349Z,67.89
2018-06-05T09:53:14.864Z,67.69
2018-06-05T09:55:43.282Z,67.28
2018-06-05T09:58:11.798Z,66.44
2018-06-05T10:00:45.971Z,66.30
2018-06-05T10:03:15.060Z,66.25
2018-06-05T10:05:43.840Z,66.70
2018-06-05T10:08:13.185Z,66.17
2018-06-05T10:10:41.626Z,66.72
2018-06-05T10:13:10.037Z,65.87
2018-06-05T10:15:38.615Z,65.69
2018-06-05T10:18:07.016Z,65.91
2018-06-05T10:20:35.391Z,65.53
2018-06-05T10:23:03.862Z,65.45
2018-06-05T10:25:45.967Z,65.73
2018-06-05T10:28:14.369Z,65.08
2018-06-05T10:30:42.763Z,64.80
2018-06-05T10:33:12.138Z,64.96
2018-06-05T10:44:18.957Z,65.17
2018-06-05T10:46:52.399Z,65.59
2018-06-05T10:49:20.771Z,65.26
2018-06-05T10:51:49.515Z,64.79
2018-06-05T10:54:17.935Z,65.43
2018-06-05T10:56:46.356Z,65.44
2018-06-05T10:59:14.783Z,65.60
2018-06-05T11:01:43.285Z,64.78
2018-06-05T11:04:11.977Z,64.48
2018-06-05T11:06:40.493Z,65.24
2018-06-05T11:09:08.920Z,64.55
2018-06-05T11:11:37.378Z,65.00
2018-06-05T11:14:05.959Z,65.73
2018-06-05T11:16:39.496Z,66.01
2018-06-05T11:19:08.131Z,65.36
2018-06-05T11:21:36.625Z,65.91
2018-06-05T11:24:05.105Z,66.43
2018-06-05T11:26:47.182Z,65.65
2018-06-05T11:29:15.667Z,66.55
2018-06-05T11:31:44.248Z,65.25
2018-06-05T11:34:12.727Z,64.85
2018-06-05T11:36:46.275Z,65.52
2018-06-05T11:39:14.584Z,64.68
2018-06-05T11:41:43.087Z,64.54
2018-06-05T11:44:11.519Z,64.29
2018-06-05T11:46:58.746Z,64.25
2018-06-05T11:49:27.169Z,64.25
2018-06-05T11:51:55.873Z,63.19
2018-06-05T11:54:24.261Z,62.76
2018-06-05T11:56:53.637Z,62.71
2018-06-05T11:59:22.058Z,62.41
2018-06-05T12:01:50.588Z,61.55
2018-06-05T12:04:19.442Z,61.74
2018-06-05T12:06:47.919Z,62.00
2018-06-05T12:09:16.384Z,62.35
2018-06-05T12:11:44.753Z,62.04
2018-06-05T12:14:13.579Z,61.54
2018-06-05T12:16:47.033Z,62.12
2018-06-05T12:19:16.216Z,61.76
2018-06-05T12:21:44.653Z,60.99
2018-06-05T12:24:13.003Z,61.50
2018-06-05T12:29:44.039Z,60.77
2018-06-05T12:32:12.963Z,60.25
2018-06-05T12:34:41.757Z,60.23
2018-06-05T12:37:19.909Z,59.80
2018-06-05T12:39:48.922Z,57.98
2018-06-05T12:42:17.606Z,57.03
2018-06-05T12:44:46.490Z,55.47
2018-06-05T12:47:17.398Z,54.20
2018-06-05T12:49:47.651Z,54.02
2018-06-05T12:52:17.098Z,52.93
2018-06-05T12:54:46.399Z,53.31
2018-06-05T12:57:22.167Z,54.64
2018-06-05T12:59:51.599Z,52.04
2018-06-05T13:02:20.043Z,52.47
2018-06-05T13:04:48.830Z,52.98
2018-06-05T13:07:17.579Z,53.59
2018-06-05T13:09:46.177Z,53.26
2018-06-05T13:12:17.190Z,53.27
2018-06-05T13:14:48.552Z,52.41
2018-06-05T13:17:17.111Z,52.69
2018-06-05T13:19:45.496Z,51.01
2018-06-05T13:22:13.826Z,51.74
2018-06-05T13:24:42.164Z,50.70
2018-06-05T13:27:24.289Z,52.23
2018-06-05T13:29:53.128Z,51.54
2018-06-05T13:32:21.539Z,51.80
2018-06-05T13:34:49.940Z,50.79
2018-06-05T13:37:18.461Z,50.65
2018-06-05T13:39:47.253Z,50.06
2018-06-05T13:42:15.658Z,49.71
2018-06-05T13:44:43.970Z,50.67
2018-06-05T13:47:12.566Z,50.24
2018-06-05T13:49:40.934Z,50.12
2018-06-05T13:52:09.372Z,50.40
2018-06-05T13:54:37.902Z,50.07
2018-06-05T13:59:59.208Z,51.13
2018-06-05T14:02:27.704Z,51.66
2018-06-05T14:04:56.189Z,51.04
2018-06-05T14:07:25.301Z,50.54
2018-06-05T14:09:54.900Z,50.57
2018-06-05T14:12:23.588Z,49.05
2018-06-05T14:14:52.035Z,49.98
2018-06-05T14:17:20.603Z,49.39
2018-06-05T14:19:48.936Z,50.41
2018-06-05T14:22:17.279Z,49.64
2018-06-05T14:24:45.811Z,50.23
2018-06-05T14:27:32.921Z,50.28
2018-06-05T14:30:01.359Z,48.72
2018-06-05T14:32:29.725Z,48.79
2018-06-05T14:34:58.098Z,49.21
2018-06-05T14:37:28.033Z,49.47
2018-06-05T14:39:56.952Z,48.63
2018-06-05T14:42:25.595Z,49.80
2018-06-05T14:44:54.103Z,48.94
2018-06-05T14:47:22.570Z,49.98
2018-06-05T14:49:51.055Z,49.57
2018-06-05T14:52:19.745Z,50.25
2018-06-05T14:54:48.052Z,50.34
2018-06-05T14:57:25.967Z,50.56
2018-06-05T14:59:54.658Z,49.02
2018-06-05T15:02:23.001Z,49.13
2018-06-05T15:04:52.088Z,49.12
2018-06-05T15:07:20.559Z,48.87
2018-06-05T15:09:48.980Z,50.12
2018-06-05T15:12:17.371Z,50.94
2018-06-05T15:14:45.897Z,49.74
2018-06-05T15:17:14.426Z,49.37
2018-06-05T15:19:42.907Z,49.72
2018-06-05T15:22:11.336Z,51.20
2018-06-05T15:24:39.897Z,50.27
2018-06-05T15:27:08.428Z,51.32
2018-06-05T15:29:37.459Z,51.23
2018-06-05T15:32:06.552Z,50.98
2018-06-05T15:34:35.085Z,50.99
2018-06-05T15:37:03.629Z,49.88
2018-06-05T15:39:32.204Z,50.58
2018-06-05T15:42:00.950Z,49.41
2018-06-05T15:44:29.991Z,49.47
2018-06-05T15:47:00.480Z,49.30
2018-06-05T15:49:29.012Z,49.06
2018-06-05T15:51:57.983Z,49.59
2018-06-05T15:54:26.907Z,49.85
2018-06-05T15:56:55.591Z,50.53
2018-06-05T15:59:24.417Z,49.99
2018-06-05T16:01:53.237Z,50.25
2018-06-05T16:04:22.031Z,51.00
2018-06-05T16:06:50.901Z,50.65
2018-06-05T16:09:19.559Z,50.72
2018-06-05T16:11:48.159Z,50.99
2018-06-05T16:14:17.265Z,50.67
2018-06-05T16:16:59.392Z,50.92
2018-06-05T16:19:28.721Z,51.53
2018-06-05T16:21:58.028Z,51.17
2018-06-05T16:24:26.768Z,50.08
2018-06-05T16:26:55.253Z,49.87
2018-06-05T16:29:24.347Z,50.17
2018-06-05T16:31:52.897Z,50.73
2018-06-05T16:34:22.045Z,51.21
2018-06-05T16:37:13.182Z,50.91
2018-06-05T16:39:41.818Z,51.43
2018-06-05T16:42:10.539Z,51.05
2018-06-05T16:44:39.286Z,50.45
2018-06-05T16:47:21.470Z,51.36
2018-06-05T16:49:50.106Z,51.26
2018-06-05T16:52:18.736Z,51.14
2018-06-05T16:54:47.502Z,50.39
2018-06-05T16:57:29.738Z,51.05
2018-06-05T16:59:58.372Z,50.79
2018-06-05T17:02:27.077Z,50.92
2018-06-05T17:04:55.816Z,51.00
2018-06-05T17:07:24.706Z,51.55
2018-06-05T17:09:53.906Z,50.60
2018-06-05T17:12:22.654Z,51.73
2018-06-05T17:14:51.132Z,51.20
2018-06-05T17:17:33.337Z,51.32
2018-06-05T17:20:02.247Z,51.84
2018-06-05T17:22:31.289Z,52.02
2018-06-05T17:25:01.462Z,51.36
2018-06-05T17:27:30.660Z,51.29
2018-06-05T17:29:59.718Z,51.99
2018-06-05T17:32:29.147Z,52.11
2018-06-05T17:34:57.872Z,51.75
2018-06-05T17:37:26.506Z,51.81
2018-06-05T17:39:55.334Z,51.48
2018-06-05T17:42:23.909Z,51.49
2018-06-05T17:44:52.608Z,51.55
2018-06-05T17:47:39.916Z,52.03
2018-06-05T17:50:08.532Z,52.17
2018-06-05T17:52:37.166Z,51.53
2018-06-05T17:58:12.748Z,52.24
2018-06-05T18:00:41.363Z,52.82
2018-06-05T18:03:09.952Z,52.96
2018-06-05T18:08:30.996Z,51.85
2018-06-05T18:11:00.076Z,50.93
2018-06-05T18:13:28.478Z,50.44
2018-06-05T18:15:57.670Z,52.13
2018-06-05T18:18:26.426Z,52.43
2018-06-05T18:20:54.820Z,53.58
2018-06-05T18:23:23.505Z,54.42
2018-06-05T18:26:14.714Z,53.79
2018-06-05T18:28:43.225Z,54.35
2018-06-05T18:31:11.795Z,54.79
2018-06-05T18:33:40.275Z,55.17
2018-06-05T18:36:22.661Z,55.29
2018-06-05T18:38:51.147Z,55.68
2018-06-05T18:41:19.771Z,55.99
2018-06-05T18:43:48.387Z,56.54
2018-06-05T18:49:09.590Z,56.39
2018-06-05T18:51:38.280Z,56.42
2018-06-05T18:54:07.238Z,56.56
2018-06-05T18:56:36.000Z,55.83
2018-06-05T18:59:04.482Z,56.42
2018-06-05T19:01:33.034Z,56.01
2018-06-05T19:04:01.674Z,56.46
2018-06-05T19:06:30.249Z,56.12
2018-06-05T19:08:58.833Z,56.42
2018-06-05T19:11:27.709Z,56.53
2018-06-05T19:13:56.101Z,57.02
2018-06-05T19:16:29.724Z,57.07
2018-06-05T19:18:59.293Z,57.59
2018-06-05T19:21:28.481Z,57.75
2018-06-05T19:23:57.402Z,57.76
2018-06-05T19:26:44.701Z,58.04
2018-06-05T19:29:13.809Z,57.91
2018-06-05T19:31:42.463Z,56.85
2018-06-05T19:34:11.405Z,57.57
2018-06-05T19:39:33.333Z,57.16
2018-06-05T19:42:01.828Z,57.26
2018-06-05T19:44:30.263Z,57.77
2018-06-05T19:46:58.790Z,57.64
2018-06-05T19:49:27.367Z,57.86
2018-06-05T19:51:55.768Z,57.77
2018-06-05T19:54:24.203Z,57.69
2018-06-05T19:56:52.771Z,57.66
2018-06-05T19:59:21.381Z,57.92
2018-06-05T20:01:49.870Z,57.45
2018-06-05T20:04:18.333Z,57.74
2018-06-05T20:06:46.904Z,57.41
2018-06-05T20:09:15.503Z,57.39
2018-06-05T20:11:43.993Z,57.79
2018-06-05T20:14:12.550Z,58.37
2018-06-05T20:16:41.119Z,58.13
2018-06-05T20:19:10.001Z,58.81
2018-06-05T20:21:38.469Z,58.99
2018-06-05T20:24:07.517Z,59.19
2018-06-05T20:26:37.763Z,58.84
2018-06-05T20:29:06.473Z,58.99
2018-06-05T20:31:35.656Z,59.05
2018-06-05T20:34:04.549Z,58.99
2018-06-05T20:36:33.716Z,59.36
2018-06-05T20:39:03.253Z,60.07
2018-06-05T20:41:31.976Z,59.31
2018-06-05T20:44:00.334Z,59.69
2018-06-05T20:46:29.652Z,59.61
2018-06-05T20:48:58.937Z,60.42
2018-06-05T20:51:27.355Z,60.04
2018-06-05T20:53:56.078Z,60.13
2018-06-05T20:59:40.062Z,60.34
2018-06-05T21:02:08.685Z,60.42
2018-06-05T21:04:37.160Z,60.08
2018-06-05T21:07:05.748Z,60.21
2018-06-05T21:09:34.338Z,60.27
2018-06-05T21:12:03.028Z,59.90
2018-06-05T21:14:31.503Z,60.06
2018-06-05T21:17:00.095Z,60.65
2018-06-05T21:19:28.649Z,60.73
2018-06-05T21:21:57.120Z,60.67
2018-06-05T21:24:25.915Z,60.73
2018-06-05T21:27:13.039Z,60.70
2018-06-05T21:29:41.904Z,60.82
2018-06-05T21:32:10.660Z,61.40
2018-06-05T21:34:40.468Z,61.21
2018-06-05T21:37:08.962Z,61.51
2018-06-05T21:39:37.381Z,61.42
2018-06-05T21:42:06.171Z,61.41
2018-06-05T21:44:35.121Z,62.33
2018-06-05T21:47:03.655Z,61.96
2018-06-05T21:49:32.036Z,62.14
2018-06-05T21:52:02.536Z,62.20
2018-06-05T21:54:30.993Z,62.26
2018-06-05T21:57:13.243Z,62.62
2018-06-05T21:59:41.838Z,62.41
2018-06-05T22:02:10.856Z,62.10
2018-06-05T22:04:40.013Z,62.87
2018-06-05T22:07:09.235Z,62.88
2018-06-05T22:09:37.948Z,62.98
2018-06-05T22:12:06.497Z,63.32
2018-06-05T22:14:35.614Z,62.80
2018-06-05T22:17:05.160Z,62.46
2018-06-05T22:19:35.231Z,63.08
2018-06-05T22:22:04.160Z,62.96
2018-06-05T22:24:32.943Z,63.33
2018-06-05T22:27:03.053Z,63.11
2018-06-05T22:29:32.234Z,63.47
2018-06-05T22:32:01.019Z,62.99
2018-06-05T22:34:30.059Z,63.55
2018-06-05T22:39:56.915Z,62.92
2018-06-05T22:42:25.845Z,63.75
2018-06-05T22:44:55.567Z,64.05
2018-06-05T22:59:00.969Z,64.42
2018-06-05T23:01:30.352Z,64.10
2018-06-05T23:03:59.199Z,64.13
2018-06-05T23:06:28.020Z,64.77
2018-06-05T23:08:57.848Z,64.39
2018-06-05T23:11:26.729Z,64.85
2018-06-05T23:13:55.352Z,64.75
2018-06-05T23:16:29.076Z,65.45
2018-06-05T23:18:57.996Z,65.65
2018-06-05T23:21:27.047Z,65.59
2018-06-05T23:23:55.566Z,65.89
2018-06-05T23:26:24.105Z,66.03
2018-06-05T23:28:52.705Z,66.18
2018-06-05T23:31:21.357Z,66.45
2018-06-05T23:33:50.139Z,66.07
2018-06-05T23:36:18.905Z,66.22
2018-06-05T23:38:47.715Z,66.20
2018-06-05T23:41:16.419Z,65.97
2018-06-05T23:43:44.927Z,66.40
2018-06-05T23:46:13.345Z,65.73
2018-06-05T23:48:41.836Z,65.96
2018-06-05T23:51:10.671Z,66.58
2018-06-05T23:53:39.531Z,65.83
2018-06-05T23:56:08.423Z,66.04
2018-06-05T23:58:37.284Z,66.19
